Airfield :
LOGIN :

Register | Disclaimer

   EN    FR    IT 

 










Legend :    VFR   Marginal VFR   IFR   Intensive IFR   Very Intensive IFR
Visi :
Ceiling :
>= 8 km
>= 3000ft
5 to 8 km
1000 to 3000 ft
1500m to 5 km
500 to 1000 ft
800 to 1500m
200 to 500 ft
< 800m
< 200 ft
Symbols :   Thunderstorms  Fog  Heavy snow  Heavy precipitations  Wind > 20 kt
SIGMETs :     Misc.  Thunderstorms  Icing  Turbulence  Mountain Waves  Volcanic Ashes






- Airport Elevation : 62 ft
- IATA code : TAN


GMTT - Tanger Ibn Batouta

CURRENT METAR :
  • 081630Z 04015KT CAVOK 31/19 Q1013 NOSIG

EXPIRED METARs :
  • 081600Z 04016KT CAVOK 32/19 Q1014 NOSIG
  • 081530Z 04016KT CAVOK 32/19 Q1014 NOSIG
  • 081500Z 04018KT CAVOK 32/19 Q1014 NOSIG
  • 081430Z 05018KT CAVOK 32/19 Q1014 NOSIG

TAF TAF GMTT
Valid from the 08 at 12:00 until the 09 at 18:00 UTC


081100Z 0812/0918 06010KT CAVOK
PROB40
TEMPO 0823/0910 VRB02KT 3000 BR BKN010
BECMG 0911/0915 28003KT



MET'MAP, your aeronautical weather chart ! - Copyright ORBIFLY December 2007 - Disclaimer

ORBIFLY MET'MAP TEAM :

Programming & Development : Alexandra Zaïnal
Concept & original design : Baudouin d'Aumeries
Assistance for programming : Marc-Olivier Méhu
Technical & hardware support : Manuel Goepfert

Contact : metmap@orbifly.com




SOURCES & CREDITS :

   NOAA